PWSweather.com
Personal Weather Stations
Station Observations
KMNGREYC2
Grey Cloud Island, Grey Cloud Island, MN 55071

Grey Cloud IslandGrey Cloud Island, MN 55071

Lat: 44.799333, Lon: -92.987851

Elevation: 700

Station Type: Davis VP2

www.jagielski.com/weather/conditions.htm

High Low Average
Temperature 53.8°F12.1°C 45.4°F7.4°C 48.1°F8.9°C
Dew Point 50.3°F10.2°C 43.8°F6.6°C 45.3°F7.4°C
Winds 8.0 mph 12.9 kmh Calm Calm 2.0 mph E3.2 kmh E
Wind Gusts 16.0 mph25.7 kmh 4.0 mph6.4 kmh 9.0 mph14.5 kmh
Humidity 95% 84% 90%
Pressure 29.73 in1006.8 mb 29.58 in1001.7 mb -
Precipitation 0.00 in0.0 mm - -
Hour Temp Dew Point Humidity Winds Wind Gusts Pressure Precip Precip Rate Daily Precip Total
12:00 AM 53.8°F12.1°C 50.3°F10.2°C 88% Calm Calm 7.0 mph11.3 kmh 29.73 in1006.8 mb 0.19 in4.8 mm 0.00 in0.0 mm 0.19 in4.8 mm
12:15 AM 53.3°F11.8°C 49.5°F9.7°C 87% 3.0 mph ENE4.8 kmh ENE 5.0 mph8.0 kmh 29.72 in1006.4 mb 0.07 in1.8 mm 0.00 in0.0 mm 0.19 in4.8 mm
12:30 AM 52.8°F11.6°C 49.4°F9.7°C 88% Calm Calm 5.0 mph8.0 kmh 29.71 in1006.1 mb 0.07 in1.8 mm 0.00 in0.0 mm 0.19 in4.8 mm
12:45 AM 52.3°F11.3°C 48.6°F9.2°C 87% 6.0 mph NE9.7 kmh NE 8.0 mph12.9 kmh 29.69 in1005.4 mb 0.01 in0.3 mm 0.00 in0.0 mm 0.19 in4.8 mm
01:00 AM 51.8°F11.0°C 48.1°F8.9°C 87% 2.0 mph ESE3.2 kmh ESE 12.0 mph19.3 kmh 29.69 in1005.4 mb 0.01 in0.3 mm 0.00 in0.0 mm 0.19 in4.8 mm
01:15 AM 51.5°F10.8°C 47.5°F8.6°C 86% 3.0 mph E4.8 kmh E 12.0 mph19.3 kmh 29.69 in1005.4 mb 0.00 in0.0 mm 0.00 in0.0 mm 0.19 in4.8 mm
01:30 AM 51.2°F10.7°C 47.2°F8.4°C 86% 4.0 mph NE6.4 kmh NE 12.0 mph19.3 kmh 29.69 in1005.4 mb 0.00 in0.0 mm 0.00 in0.0 mm 0.19 in4.8 mm
01:45 AM 50.7°F10.4°C 47.3°F8.5°C 88% 2.0 mph ESE3.2 kmh ESE 8.0 mph12.9 kmh 29.68 in1005.1 mb 0.07 in1.8 mm 0.28 in7.1 mm 0.26 in6.6 mm
02:00 AM 50.0°F10.0°C 46.9°F8.3°C 89% 5.0 mph E8.0 kmh E 8.0 mph12.9 kmh 29.68 in1005.1 mb 0.09 in2.3 mm 0.03 in0.8 mm 0.28 in7.1 mm
02:15 AM 49.6°F9.8°C 46.8°F8.2°C 90% 3.0 mph E4.8 kmh E 8.0 mph12.9 kmh 29.69 in1005.4 mb 0.11 in2.8 mm 0.08 in2.0 mm 0.30 in7.6 mm
02:30 AM 49.2°F9.6°C 46.7°F8.2°C 91% Calm Calm 8.0 mph12.9 kmh 29.68 in1005.1 mb 0.12 in3.0 mm 0.04 in1.0 mm 0.31 in7.9 mm
02:45 AM 49.0°F9.4°C 46.8°F8.2°C 92% Calm Calm 4.0 mph6.4 kmh 29.67 in1004.7 mb 0.11 in2.8 mm 0.00 in0.0 mm 0.31 in7.9 mm
03:00 AM 49.0°F9.4°C 46.8°F8.2°C 92% 2.0 mph S3.2 kmh S 9.0 mph14.5 kmh 29.66 in1004.4 mb 0.11 in2.8 mm 0.00 in0.0 mm 0.31 in7.9 mm
03:15 AM 49.0°F9.4°C 47.1°F8.4°C 93% Calm Calm 7.0 mph11.3 kmh 29.65 in1004.1 mb 0.02 in0.5 mm 0.00 in0.0 mm 0.31 in7.9 mm
03:30 AM 49.1°F9.5°C 47.2°F8.4°C 93% 2.0 mph ENE3.2 kmh ENE 8.0 mph12.9 kmh 29.65 in1004.1 mb 0.02 in0.5 mm 0.00 in0.0 mm 0.31 in7.9 mm
03:45 AM 49.2°F9.6°C 47.3°F8.5°C 93% Calm Calm 6.0 mph9.7 kmh 29.65 in1004.1 mb 0.00 in0.0 mm 0.00 in0.0 mm 0.31 in7.9 mm
04:00 AM 49.3°F9.6°C 47.4°F8.6°C 93% 2.0 mph E3.2 kmh E 6.0 mph9.7 kmh 29.65 in1004.1 mb 0.00 in0.0 mm 0.00 in0.0 mm 0.31 in7.9 mm
04:15 AM 49.4°F9.7°C 47.5°F8.6°C 93% Calm Calm 4.0 mph6.4 kmh 29.65 in1004.1 mb 0.00 in0.0 mm 0.00 in0.0 mm 0.31 in7.9 mm
04:30 AM 49.5°F9.7°C 47.9°F8.8°C 94% 1.0 mph ENE1.6 kmh ENE 7.0 mph11.3 kmh 29.65 in1004.1 mb 0.00 in0.0 mm 0.00 in0.0 mm 0.31 in7.9 mm
04:45 AM 49.6°F9.8°C 48.0°F8.9°C 94% 1.0 mph ENE1.6 kmh ENE 7.0 mph11.3 kmh 29.65 in1004.1 mb 0.00 in0.0 mm 0.00 in0.0 mm 0.31 in7.9 mm
05:00 AM 49.5°F9.7°C 47.9°F8.8°C 94% Calm Calm 7.0 mph11.3 kmh 29.64 in1003.7 mb 0.00 in0.0 mm 0.00 in0.0 mm 0.31 in7.9 mm
05:15 AM 49.1°F9.5°C 47.2°F8.4°C 93% 5.0 mph ENE8.0 kmh ENE 8.0 mph12.9 kmh 29.65 in1004.1 mb 0.00 in0.0 mm 0.00 in0.0 mm 0.31 in7.9 mm
05:30 AM 48.6°F9.2°C 46.4°F8.0°C 92% 4.0 mph W6.4 kmh W 8.0 mph12.9 kmh 29.66 in1004.4 mb 0.00 in0.0 mm 0.00 in0.0 mm 0.31 in7.9 mm
05:45 AM 48.6°F9.2°C 46.7°F8.2°C 93% 3.0 mph NE4.8 kmh NE 6.0 mph9.7 kmh 29.71 in1006.1 mb 0.26 in6.6 mm 1.04 in26.4 mm 0.57 in14.5 mm
06:00 AM 48.4°F9.1°C 46.5°F8.1°C 93% Calm Calm 7.0 mph11.3 kmh 29.70 in1005.8 mb 0.29 in7.4 mm 0.04 in1.0 mm 0.60 in15.2 mm
06:15 AM 47.6°F8.7°C 45.7°F7.6°C 93% 2.0 mph NE3.2 kmh NE 11.0 mph17.7 kmh 29.68 in1005.1 mb 0.30 in7.6 mm 0.04 in1.0 mm 0.61 in15.5 mm
06:30 AM 47.1°F8.4°C 45.2°F7.3°C 93% Calm Calm 11.0 mph17.7 kmh 29.69 in1005.4 mb 0.30 in7.6 mm 0.00 in0.0 mm 0.61 in15.5 mm
06:45 AM 46.7°F8.2°C 44.8°F7.1°C 93% 6.0 mph E9.7 kmh E 10.0 mph16.1 kmh 29.66 in1004.4 mb 0.23 in5.8 mm 0.00 in0.0 mm 0.61 in15.5 mm
07:00 AM 46.1°F7.8°C 44.2°F6.8°C 93% 4.0 mph ENE6.4 kmh ENE 11.0 mph17.7 kmh 29.64 in1003.7 mb 0.23 in5.8 mm 0.00 in0.0 mm 0.61 in15.5 mm
07:15 AM 45.7°F7.6°C 43.8°F6.6°C 93% 1.0 mph WSW1.6 kmh WSW 11.0 mph17.7 kmh 29.65 in1004.1 mb 0.01 in0.3 mm 0.00 in0.0 mm 0.61 in15.5 mm
07:30 AM 45.5°F7.5°C 43.9°F6.6°C 94% 5.0 mph E8.0 kmh E 11.0 mph17.7 kmh 29.66 in1004.4 mb 0.01 in0.3 mm 0.00 in0.0 mm 0.61 in15.5 mm
07:45 AM 45.4°F7.4°C 43.8°F6.6°C 94% Calm Calm 7.0 mph11.3 kmh 29.68 in1005.1 mb 0.00 in0.0 mm 0.00 in0.0 mm 0.61 in15.5 mm
08:00 AM 45.4°F7.4°C 43.8°F6.6°C 94% 3.0 mph E4.8 kmh E 9.0 mph14.5 kmh 29.65 in1004.1 mb 0.00 in0.0 mm 0.00 in0.0 mm 0.61 in15.5 mm
08:15 AM 45.5°F7.5°C 43.9°F6.6°C 94% Calm Calm 7.0 mph11.3 kmh 29.64 in1003.7 mb 0.00 in0.0 mm 0.00 in0.0 mm 0.61 in15.5 mm
08:30 AM 45.5°F7.5°C 43.9°F6.6°C 94% 5.0 mph ENE8.0 kmh ENE 10.0 mph16.1 kmh 29.64 in1003.7 mb 0.00 in0.0 mm 0.00 in0.0 mm 0.61 in15.5 mm
08:45 AM 45.7°F7.6°C 44.1°F6.7°C 94% 5.0 mph ESE8.0 kmh ESE 16.0 mph25.7 kmh 29.60 in1002.4 mb 0.00 in0.0 mm 0.00 in0.0 mm 0.61 in15.5 mm
09:00 AM 45.8°F7.7°C 44.2°F6.8°C 94% 3.0 mph SSE4.8 kmh SSE 16.0 mph25.7 kmh 29.58 in1001.7 mb 0.00 in0.0 mm 0.00 in0.0 mm 0.61 in15.5 mm
09:15 AM 46.0°F7.8°C 44.1°F6.7°C 93% 2.0 mph SE3.2 kmh SE 11.0 mph17.7 kmh 29.60 in1002.4 mb 0.00 in0.0 mm 0.00 in0.0 mm 0.61 in15.5 mm
09:30 AM 46.2°F7.9°C 44.3°F6.8°C 93% Calm Calm 11.0 mph17.7 kmh 29.62 in1003.0 mb 0.00 in0.0 mm 0.00 in0.0 mm 0.61 in15.5 mm
09:45 AM 46.5°F8.1°C 44.6°F7.0°C 93% Calm Calm 7.0 mph11.3 kmh 29.63 in1003.4 mb 0.00 in0.0 mm 0.00 in0.0 mm 0.61 in15.5 mm
10:00 AM 46.8°F8.2°C 44.9°F7.2°C 93% 4.0 mph NNE6.4 kmh NNE 7.0 mph11.3 kmh 29.63 in1003.4 mb 0.00 in0.0 mm 0.00 in0.0 mm 0.61 in15.5 mm
10:15 AM 47.1°F8.4°C 44.9°F7.2°C 92% Calm Calm 4.0 mph6.4 kmh 29.64 in1003.7 mb 0.00 in0.0 mm 0.00 in0.0 mm 0.61 in15.5 mm
10:30 AM 47.4°F8.6°C 45.2°F7.3°C 92% Calm Calm 7.0 mph11.3 kmh 29.65 in1004.1 mb 0.00 in0.0 mm 0.00 in0.0 mm 0.61 in15.5 mm
10:45 AM 47.7°F8.7°C 45.5°F7.5°C 92% 5.0 mph SE8.0 kmh SE 8.0 mph12.9 kmh 29.65 in1004.1 mb 0.00 in0.0 mm 0.00 in0.0 mm 0.61 in15.5 mm
11:00 AM 48.0°F8.9°C 45.5°F7.5°C 91% Calm Calm 10.0 mph16.1 kmh 29.62 in1003.0 mb 0.00 in0.0 mm 0.00 in0.0 mm 0.61 in15.5 mm
11:15 AM 48.3°F9.1°C 45.8°F7.7°C 91% Calm Calm 6.0 mph9.7 kmh 29.63 in1003.4 mb 0.00 in0.0 mm 0.00 in0.0 mm 0.61 in15.5 mm
11:30 AM 48.5°F9.2°C 45.7°F7.6°C 90% Calm Calm 10.0 mph16.1 kmh 29.64 in1003.7 mb 0.00 in0.0 mm 0.00 in0.0 mm 0.61 in15.5 mm
11:45 AM 48.6°F9.2°C 45.8°F7.7°C 90% Calm Calm 8.0 mph12.9 kmh 29.67 in1004.7 mb 0.00 in0.0 mm 0.00 in0.0 mm 0.61 in15.5 mm
12:00 PM 48.7°F9.3°C 45.9°F7.7°C 90% 3.0 mph NE4.8 kmh NE 8.0 mph12.9 kmh 29.67 in1004.7 mb 0.00 in0.0 mm 0.00 in0.0 mm 0.61 in15.5 mm
12:15 PM 49.0°F9.4°C 45.9°F7.7°C 89% 7.0 mph ENE11.3 kmh ENE 7.0 mph11.3 kmh 29.65 in1004.1 mb 0.00 in0.0 mm 0.00 in0.0 mm 0.61 in15.5 mm
12:30 PM 49.2°F9.6°C 45.5°F7.5°C 87% 5.0 mph N8.0 kmh N 12.0 mph19.3 kmh 29.64 in1003.7 mb 0.00 in0.0 mm 0.00 in0.0 mm 0.61 in15.5 mm
12:45 PM 49.5°F9.7°C 45.5°F7.5°C 86% 1.0 mph ENE1.6 kmh ENE 8.0 mph12.9 kmh 29.65 in1004.1 mb 0.00 in0.0 mm 0.00 in0.0 mm 0.61 in15.5 mm
01:00 PM 49.7°F9.8°C 45.7°F7.6°C 86% 2.0 mph N3.2 kmh N 8.0 mph12.9 kmh 29.66 in1004.4 mb 0.00 in0.0 mm 0.00 in0.0 mm 0.61 in15.5 mm
01:15 PM 49.7°F9.8°C 45.4°F7.4°C 85% 2.0 mph ENE3.2 kmh ENE 12.0 mph19.3 kmh 29.65 in1004.1 mb 0.00 in0.0 mm 0.00 in0.0 mm 0.61 in15.5 mm
01:30 PM 49.9°F9.9°C 45.6°F7.6°C 85% 4.0 mph N6.4 kmh N 12.0 mph19.3 kmh 29.63 in1003.4 mb 0.00 in0.0 mm 0.00 in0.0 mm 0.61 in15.5 mm
01:45 PM 49.9°F9.9°C 45.3°F7.4°C 84% 7.0 mph ENE11.3 kmh ENE 10.0 mph16.1 kmh 29.62 in1003.0 mb 0.00 in0.0 mm 0.00 in0.0 mm 0.61 in15.5 mm
02:00 PM 49.9°F9.9°C 45.3°F7.4°C 84% 1.0 mph NNE1.6 kmh NNE 11.0 mph17.7 kmh 29.65 in1004.1 mb 0.00 in0.0 mm 0.00 in0.0 mm 0.61 in15.5 mm
02:15 PM 49.8°F9.9°C 45.2°F7.3°C 84% 1.0 mph NNE1.6 kmh NNE 12.0 mph19.3 kmh 29.65 in1004.1 mb 0.00 in0.0 mm 0.00 in0.0 mm 0.61 in15.5 mm
02:30 PM 49.7°F9.8°C 45.4°F7.4°C 85% 8.0 mph ENE12.9 kmh ENE 12.0 mph19.3 kmh 29.64 in1003.7 mb 0.00 in0.0 mm 0.00 in0.0 mm 0.61 in15.5 mm
02:45 PM 49.5°F9.7°C 44.9°F7.2°C 84% Calm Calm 8.0 mph12.9 kmh 29.64 in1003.7 mb 0.00 in0.0 mm 0.00 in0.0 mm 0.61 in15.5 mm
03:00 PM 49.2°F9.6°C 44.9°F7.2°C 85% Calm Calm 11.0 mph17.7 kmh 29.67 in1004.7 mb 0.00 in0.0 mm 0.00 in0.0 mm 0.61 in15.5 mm
03:15 PM 48.6°F9.2°C 44.3°F6.8°C 85% 5.0 mph NE8.0 kmh NE 7.0 mph11.3 kmh 29.69 in1005.4 mb 0.00 in0.0 mm 0.00 in0.0 mm 0.61 in15.5 mm
03:30 PM 48.3°F9.1°C 44.3°F6.8°C 86% 4.0 mph NNE6.4 kmh NNE 9.0 mph14.5 kmh 29.69 in1005.4 mb 0.00 in0.0 mm 0.00 in0.0 mm 0.61 in15.5 mm
03:45 PM 48.0°F8.9°C 44.0°F6.7°C 86% 4.0 mph NE6.4 kmh NE 11.0 mph17.7 kmh 29.70 in1005.8 mb 0.00 in0.0 mm 0.00 in0.0 mm 0.61 in15.5 mm
04:00 PM 47.9°F8.8°C 44.2°F6.8°C 87% Calm Calm 13.0 mph20.9 kmh 29.68 in1005.1 mb 0.00 in0.0 mm 0.00 in0.0 mm 0.61 in15.5 mm
04:15 PM 47.9°F8.8°C 44.5°F6.9°C 88% 3.0 mph ENE4.8 kmh ENE 10.0 mph16.1 kmh 29.67 in1004.7 mb 0.00 in0.0 mm 0.00 in0.0 mm 0.61 in15.5 mm
04:30 PM 47.7°F8.7°C 44.3°F6.8°C 88% 7.0 mph E11.3 kmh E 11.0 mph17.7 kmh 29.67 in1004.7 mb 0.00 in0.0 mm 0.00 in0.0 mm 0.61 in15.5 mm
04:45 PM 47.7°F8.7°C 44.3°F6.8°C 88% 3.0 mph NE4.8 kmh NE 9.0 mph14.5 kmh 29.67 in1004.7 mb 0.00 in0.0 mm 0.00 in0.0 mm 0.61 in15.5 mm
05:00 PM 47.6°F8.7°C 44.2°F6.8°C 88% 4.0 mph NNE6.4 kmh NNE 10.0 mph16.1 kmh 29.67 in1004.7 mb 0.00 in0.0 mm 0.00 in0.0 mm 0.61 in15.5 mm
05:15 PM 47.7°F8.7°C 44.6°F7.0°C 89% 2.0 mph N3.2 kmh N 10.0 mph16.1 kmh 29.67 in1004.7 mb 0.00 in0.0 mm 0.00 in0.0 mm 0.61 in15.5 mm
05:30 PM 47.7°F8.7°C 44.3°F6.8°C 88% 3.0 mph NNE4.8 kmh NNE 12.0 mph19.3 kmh 29.67 in1004.7 mb 0.00 in0.0 mm 0.00 in0.0 mm 0.61 in15.5 mm
05:45 PM 47.6°F8.7°C 44.2°F6.8°C 88% 5.0 mph NNW8.0 kmh NNW 14.0 mph22.5 kmh 29.67 in1004.7 mb 0.00 in0.0 mm 0.00 in0.0 mm 0.61 in15.5 mm
06:00 PM 47.5°F8.6°C 44.1°F6.7°C 88% 1.0 mph NW1.6 kmh NW 14.0 mph22.5 kmh 29.68 in1005.1 mb 0.00 in0.0 mm 0.00 in0.0 mm 0.61 in15.5 mm
06:15 PM 47.3°F8.5°C 43.9°F6.6°C 88% 4.0 mph E6.4 kmh E 10.0 mph16.1 kmh 29.67 in1004.7 mb 0.00 in0.0 mm 0.00 in0.0 mm 0.61 in15.5 mm
06:30 PM 47.3°F8.5°C 43.9°F6.6°C 88% 2.0 mph NNW3.2 kmh NNW 10.0 mph16.1 kmh 29.67 in1004.7 mb 0.00 in0.0 mm 0.00 in0.0 mm 0.61 in15.5 mm
06:45 PM 47.2°F8.4°C 43.8°F6.6°C 88% Calm Calm 11.0 mph17.7 kmh 29.67 in1004.7 mb 0.00 in0.0 mm 0.00 in0.0 mm 0.61 in15.5 mm
07:02 PM 47.2°F8.4°C 43.8°F6.6°C 88% 3.0 mph ENE4.8 kmh ENE 11.0 mph17.7 kmh 29.66 in1004.4 mb 0.00 in0.0 mm 0.00 in0.0 mm 0.61 in15.5 mm
07:15 PM 47.2°F8.4°C 43.8°F6.6°C 88% Calm Calm 9.0 mph14.5 kmh 29.67 in1004.7 mb 0.00 in0.0 mm 0.00 in0.0 mm 0.61 in15.5 mm
07:30 PM 47.2°F8.4°C 43.8°F6.6°C 88% 3.0 mph NE4.8 kmh NE 10.0 mph16.1 kmh 29.69 in1005.4 mb 0.00 in0.0 mm 0.00 in0.0 mm 0.61 in15.5 mm
07:45 PM 47.2°F8.4°C 44.1°F6.7°C 89% 5.0 mph E8.0 kmh E 7.0 mph11.3 kmh 29.68 in1005.1 mb 0.00 in0.0 mm 0.00 in0.0 mm 0.61 in15.5 mm
08:00 PM 47.2°F8.4°C 44.1°F6.7°C 89% 1.0 mph SSE1.6 kmh SSE 9.0 mph14.5 kmh 29.67 in1004.7 mb 0.00 in0.0 mm 0.00 in0.0 mm 0.61 in15.5 mm
08:15 PM 47.2°F8.4°C 43.8°F6.6°C 88% 2.0 mph NE3.2 kmh NE 11.0 mph17.7 kmh 29.67 in1004.7 mb 0.00 in0.0 mm 0.00 in0.0 mm 0.61 in15.5 mm
08:30 PM 47.2°F8.4°C 43.8°F6.6°C 88% 1.0 mph NNE1.6 kmh NNE 11.0 mph17.7 kmh 29.67 in1004.7 mb 0.00 in0.0 mm 0.00 in0.0 mm 0.61 in15.5 mm
08:45 PM 47.2°F8.4°C 43.8°F6.6°C 88% 3.0 mph NE4.8 kmh NE 8.0 mph12.9 kmh 29.69 in1005.4 mb 0.00 in0.0 mm 0.00 in0.0 mm 0.61 in15.5 mm
09:00 PM 47.2°F8.4°C 43.8°F6.6°C 88% 1.0 mph ENE1.6 kmh ENE 8.0 mph12.9 kmh 29.69 in1005.4 mb 0.00 in0.0 mm 0.00 in0.0 mm 0.61 in15.5 mm
09:15 PM 47.2°F8.4°C 43.8°F6.6°C 88% Calm Calm 7.0 mph11.3 kmh 29.70 in1005.8 mb 0.00 in0.0 mm 0.00 in0.0 mm 0.61 in15.5 mm
09:30 PM 47.2°F8.4°C 44.4°F6.9°C 90% Calm Calm 7.0 mph11.3 kmh 29.71 in1006.1 mb 0.04 in1.0 mm 0.16 in4.1 mm 0.65 in16.5 mm
09:45 PM 46.9°F8.3°C 44.4°F6.9°C 91% Calm Calm 6.0 mph9.7 kmh 29.71 in1006.1 mb 0.08 in2.0 mm 0.16 in4.1 mm 0.69 in17.5 mm
10:00 PM 46.5°F8.1°C 44.3°F6.8°C 92% Calm Calm 6.0 mph9.7 kmh 29.69 in1005.4 mb 0.09 in2.3 mm 0.01 in0.3 mm 0.70 in17.8 mm
10:15 PM 46.3°F7.9°C 44.1°F6.7°C 92% 1.0 mph E1.6 kmh E 6.0 mph9.7 kmh 29.69 in1005.4 mb 0.09 in2.3 mm 0.00 in0.0 mm 0.70 in17.8 mm
10:30 PM 46.2°F7.9°C 44.3°F6.8°C 93% Calm Calm 8.0 mph12.9 kmh 29.69 in1005.4 mb 0.09 in2.3 mm 0.00 in0.0 mm 0.70 in17.8 mm
10:45 PM 46.0°F7.8°C 44.4°F6.9°C 94% 2.0 mph NNE3.2 kmh NNE 7.0 mph11.3 kmh 29.69 in1005.4 mb 0.07 in1.8 mm 0.00 in0.0 mm 0.70 in17.8 mm
11:00 PM 45.9°F7.7°C 44.3°F6.8°C 94% Calm Calm 7.0 mph11.3 kmh 29.68 in1005.1 mb 0.08 in2.0 mm 0.01 in0.3 mm 0.71 in18.0 mm
11:15 PM 45.8°F7.7°C 44.2°F6.8°C 94% Calm Calm 7.0 mph11.3 kmh 29.67 in1004.7 mb 0.05 in1.3 mm 0.00 in0.0 mm 0.71 in18.0 mm
11:30 PM 45.7°F7.6°C 44.1°F6.7°C 94% 1.0 mph N1.6 kmh N 7.0 mph11.3 kmh 29.66 in1004.4 mb 0.06 in1.5 mm 0.04 in1.0 mm 0.72 in18.3 mm
11:45 PM 45.7°F7.6°C 44.4°F6.9°C 95% 1.0 mph E1.6 kmh E 5.0 mph8.0 kmh 29.66 in1004.4 mb 0.06 in1.5 mm 0.00 in0.0 mm 0.72 in18.3 mm